Terminal Aerodrome Forecast
Issued by NWS

Home | Current Version | Previous Version | Text Only | Print | Product List | Glossary Off
Versions: 1 2 3 4 5 6 7 8 9 10 11 12 13 14 15 16 17 18 19 20 21 22 23

000
FTUS43 KLOT 231400 AAA
TAFMDW
TAF AMD
KMDW 231410Z 2314/2412 20012G20KT P6SM SCT015 BKN025
      TEMPO 2314/2317 P6SM SCT025 SCT200
     FM231700 21012G18KT P6SM SCT025 BKN200
     FM240000 20007KT P6SM SCT020 OVC150
     FM240900 36008KT 6SM BR VCSH OVC050=

USA.gov is the U.S. government's official web portal to all federal, state and local government web resources and services.